Time;durP1;ratioP1;P1;durP2;ratioP2;P2;SDS_P1;SDS_P2;PMS_P1;PMS_P2;Temp;Humidity;BMP_temperature;BMP_pressure;BME280_temperature;BME280_humidity;BME280_pressure;Samples;Min_cycle;Max_cycle;Signal;HPM_P1;HPM_P2
2023/05/22 00:01:55;;;;;;;7.95;4.30;;;14.80;73.50;;;;;;4805831;29;20054;-91
2023/05/22 00:04:22;;;;;;;10.37;5.00;;;14.60;73.80;;;;;;4804544;29;20084;-91
2023/05/22 00:06:49;;;;;;;9.15;4.20;;;14.50;74.10;;;;;;4804495;29;20132;-90
2023/05/22 00:09:16;;;;;;;7.60;3.65;;;14.50;74.10;;;;;;4806559;29;20055;-91
2023/05/22 00:11:44;;;;;;;7.95;4.00;;;14.50;73.90;;;;;;4805412;29;20392;-91
2023/05/22 00:14:12;;;;;;;8.30;4.20;;;14.50;73.60;;;;;;4805204;29;20544;-90
2023/05/22 00:16:40;;;;;;;8.03;3.97;;;14.50;73.10;;;;;;4788429;29;20104;-90
2023/05/22 00:19:11;;;;;;;8.20;4.03;;;14.60;73.00;;;;;;4817675;29;20521;-91
2023/05/22 00:21:39;;;;;;;7.20;4.30;;;14.50;73.20;;;;;;4790303;29;20150;-91
2023/05/22 00:24:07;;;;;;;7.45;3.92;;;14.50;73.40;;;;;;4805332;29;20222;-91
2023/05/22 00:26:34;;;;;;;10.10;3.88;;;14.50;73.30;;;;;;4790276;29;20055;-90
2023/05/22 00:29:01;;;;;;;9.60;4.80;;;14.40;73.10;;;;;;4805138;29;20046;-90
2023/05/22 00:31:29;;;;;;;8.88;4.43;;;14.30;73.80;;;;;;4819771;29;20078;-90
2023/05/22 00:33:57;;;;;;;8.68;4.20;;;14.30;74.20;;;;;;4804975;29;20046;-90
2023/05/22 00:36:25;;;;;;;8.13;3.90;;;14.20;74.00;;;;;;4819748;29;20078;-90
2023/05/22 00:38:52;;;;;;;8.10;3.92;;;14.30;73.70;;;;;;4819063;29;20058;-91
2023/05/22 00:41:20;;;;;;;8.57;4.40;;;14.20;73.60;;;;;;4804200;29;20055;-90
2023/05/22 00:43:49;;;;;;;9.45;4.70;;;14.20;73.50;;;;;;4820181;29;20054;-90
2023/05/22 00:46:20;;;;;;;7.60;4.07;;;14.20;73.70;;;;;;4820708;29;20067;-91
2023/05/22 00:48:48;;;;;;;9.50;3.85;;;14.20;73.80;;;;;;4808856;29;20055;-90
2023/05/22 00:51:15;;;;;;;8.20;3.92;;;14.20;73.80;;;;;;4805664;29;20522;-90
2023/05/22 00:53:43;;;;;;;8.90;4.60;;;14.20;74.00;;;;;;4808291;29;20050;-90
2023/05/22 00:56:11;;;;;;;9.90;4.32;;;14.10;74.20;;;;;;4808817;29;20051;-90
2023/05/22 00:58:38;;;;;;;8.15;4.40;;;14.10;74.20;;;;;;4824448;29;20047;-90
2023/05/22 01:01:08;;;;;;;8.52;4.07;;;14.10;74.30;;;;;;4808688;29;20078;-90
2023/05/22 01:03:41;;;;;;;8.68;4.75;;;14.10;74.30;;;;;;4808496;29;20139;-90
2023/05/22 01:06:08;;;;;;;9.60;5.17;;;14.10;74.50;;;;;;4807609;29;20051;-90
2023/05/22 01:08:35;;;;;;;8.77;4.80;;;14.10;74.90;;;;;;4822882;29;20073;-90
2023/05/22 01:11:12;;;;;;;11.80;5.25;;;14.10;75.00;;;;;;4807560;29;20047;-89
2023/05/22 01:13:59;;;;;;;15.23;5.28;;;14.10;75.20;;;;;;4808099;29;20046;-90
2023/05/22 01:16:36;;;;;;;10.73;5.30;;;14.10;75.20;;;;;;4808381;29;20174;-90
2023/05/22 01:19:31;;;;;;;12.93;5.87;;;14.10;74.90;;;;;;4820048;29;20066;-90
2023/05/22 01:22:20;;;;;;;10.20;5.45;;;14.20;74.70;;;;;;4807637;29;20054;-90
2023/05/22 01:24:56;;;;;;;11.70;5.88;;;14.20;74.70;;;;;;4805688;29;20053;-91
2023/05/22 01:27:33;;;;;;;8.57;4.47;;;14.20;74.80;;;;;;4807648;29;20062;-90
2023/05/22 01:30:31;;;;;;;8.15;4.65;;;14.10;75.00;;;;;;4808226;29;20047;-90
2023/05/22 01:32:59;;;;;;;7.93;4.20;;;14.10;75.00;;;;;;4807130;29;20070;-91
2023/05/22 01:35:27;;;;;;;11.65;5.30;;;14.10;75.00;;;;;;4789370;29;20421;-91
2023/05/22 01:37:55;;;;;;;12.57;5.47;;;14.00;75.00;;;;;;4792953;29;20051;-90
2023/05/22 01:40:24;;;;;;;10.02;4.72;;;14.00;75.00;;;;;;4806163;29;20046;-91
2023/05/22 01:42:51;;;;;;;8.93;4.22;;;14.00;74.80;;;;;;4793191;29;20586;-90
2023/05/22 01:45:20;;;;;;;9.93;4.70;;;14.00;74.80;;;;;;4792818;29;20138;-90
2023/05/22 01:47:47;;;;;;;9.60;4.38;;;14.00;74.70;;;;;;4792724;29;20107;-90
2023/05/22 01:50:16;;;;;;;11.85;4.13;;;14.10;74.80;;;;;;4793116;29;20046;-91
2023/05/22 01:53:06;;;;;;;8.57;4.10;;;14.00;74.50;;;;;;4807189;29;20078;-91
2023/05/22 01:55:45;;;;;;;7.93;4.20;;;14.00;74.20;;;;;;4807529;29;20121;-90
2023/05/22 01:58:32;;;;;;;9.67;4.20;;;14.00;74.10;;;;;;4802961;29;20525;-90
2023/05/22 02:04:03;;;;;;;7.38;3.90;;;14.00;74.00;;;;;;4827823;24;20088;-92
2023/05/22 02:06:32;;;;;;;8.63;4.20;;;13.90;73.80;;;;;;4793418;29;20114;-93
2023/05/22 02:09:01;;;;;;;8.05;3.65;;;13.70;74.10;;;;;;4793469;29;20065;-93
2023/05/22 02:11:32;;;;;;;7.27;3.07;;;13.80;74.10;;;;;;4793272;29;20047;-94
2023/05/22 02:14:00;;;;;;;7.65;3.92;;;13.80;74.20;;;;;;4778662;29;20047;-92
2023/05/22 02:16:29;;;;;;;9.35;3.85;;;13.70;73.80;;;;;;4778511;29;20493;-93
2023/05/22 02:19:05;;;;;;;8.15;3.88;;;13.70;73.50;;;;;;4793281;29;20054;-93
2023/05/22 02:21:34;;;;;;;8.77;3.78;;;13.60;73.60;;;;;;4778351;29;20055;-92
2023/05/22 02:24:02;;;;;;;7.23;3.57;;;13.50;73.60;;;;;;4793441;29;20145;-92
2023/05/22 02:26:29;;;;;;;7.10;3.35;;;13.60;73.30;;;;;;4793072;29;20054;-92
2023/05/22 02:28:56;;;;;;;7.78;3.80;;;13.60;73.10;;;;;;4778370;29;20049;-92
2023/05/22 02:31:25;;;;;;;8.05;3.50;;;13.60;72.80;;;;;;4793253;29;20055;-92
2023/05/22 02:33:52;;;;;;;10.15;3.83;;;13.60;72.90;;;;;;4793084;29;20050;-93
2023/05/22 02:36:19;;;;;;;7.00;3.03;;;13.60;73.10;;;;;;4778270;29;20521;-92
2023/05/22 02:38:46;;;;;;;8.45;3.13;;;13.70;73.00;;;;;;4777948;29;20051;-92
2023/05/22 02:41:14;;;;;;;8.38;3.30;;;13.60;72.60;;;;;;4789512;29;20114;-92
2023/05/22 02:43:41;;;;;;;7.90;2.88;;;13.60;72.00;;;;;;4795887;29;20062;-92
2023/05/22 02:46:08;;;;;;;6.45;2.70;;;13.60;71.40;;;;;;4795701;29;20071;-93
2023/05/22 02:48:36;;;;;;;7.43;3.10;;;13.60;71.20;;;;;;4795956;29;20136;-92
2023/05/22 02:51:03;;;;;;;7.20;2.88;;;13.60;71.40;;;;;;4810699;29;20047;-92
2023/05/22 02:53:30;;;;;;;8.32;3.15;;;13.60;71.20;;;;;;4795646;29;20070;-92
2023/05/22 02:55:57;;;;;;;8.95;3.03;;;13.60;70.80;;;;;;4810531;29;20077;-92
2023/05/22 02:58:24;;;;;;;9.13;3.30;;;13.60;71.00;;;;;;4791968;29;20137;-92
2023/05/22 03:00:52;;;;;;;9.00;3.43;;;13.50;71.00;;;;;;4792615;29;20105;-92
2023/05/22 03:03:19;;;;;;;8.20;3.17;;;13.60;70.60;;;;;;4777428;29;20473;-92
2023/05/22 03:05:47;;;;;;;9.45;3.20;;;13.60;70.70;;;;;;4792252;29;20086;-93
2023/05/22 03:08:14;;;;;;;9.18;3.05;;;13.50;70.90;;;;;;4792553;29;20054;-92
2023/05/22 03:10:41;;;;;;;7.35;3.10;;;13.60;70.40;;;;;;4777551;29;20145;-92
2023/05/22 03:13:08;;;;;;;7.73;3.23;;;13.60;70.70;;;;;;4792434;29;20062;-92
2023/05/22 03:15:35;;;;;;;7.88;3.50;;;13.60;71.00;;;;;;4792112;29;20055;-92
2023/05/22 03:18:10;;;;;;;7.93;3.95;;;13.60;71.80;;;;;;4792566;29;20527;-92
2023/05/22 03:20:39;;;;;;;10.80;3.55;;;13.50;72.50;;;;;;4777308;29;21267;-92
2023/05/22 03:23:06;;;;;;;7.32;3.50;;;13.50;72.90;;;;;;4792229;29;20463;-91
2023/05/22 03:25:35;;;;;;;9.70;3.80;;;13.50;73.30;;;;;;4777377;29;20105;-91
2023/05/22 03:28:02;;;;;;;8.13;3.70;;;13.50;73.40;;;;;;4792062;29;20050;-92
2023/05/22 03:30:33;;;;;;;9.68;4.10;;;13.50;73.70;;;;;;4791975;29;20042;-92
2023/05/22 03:33:10;;;;;;;9.07;3.85;;;13.50;73.90;;;;;;4792063;29;20043;-92
2023/05/22 03:35:38;;;;;;;8.07;3.42;;;13.50;74.50;;;;;;4791804;29;20051;-92
2023/05/22 03:38:05;;;;;;;8.63;4.30;;;13.50;74.20;;;;;;4777154;29;20051;-92
2023/05/22 03:40:32;;;;;;;9.15;4.00;;;13.50;74.30;;;;;;4791929;29;20564;-93
2023/05/22 03:43:00;;;;;;;7.82;3.78;;;13.50;74.30;;;;;;4792055;29;20050;-92
2023/05/22 03:45:27;;;;;;;6.82;3.08;;;13.60;74.10;;;;;;4791791;29;20050;-92
2023/05/22 03:47:55;;;;;;;10.40;4.10;;;13.70;73.70;;;;;;4791660;29;20042;-93
2023/05/22 03:50:23;;;;;;;8.67;3.67;;;13.70;73.80;;;;;;4791949;29;20055;-92
2023/05/22 03:52:50;;;;;;;7.80;3.72;;;13.70;73.90;;;;;;4791468;29;20054;-92
2023/05/22 03:55:17;;;;;;;10.60;3.80;;;13.70;74.20;;;;;;4791479;29;20075;-92
2023/05/22 03:57:44;;;;;;;7.75;3.63;;;13.70;73.70;;;;;;4805245;29;20058;-92
2023/05/22 04:00:12;;;;;;;6.88;3.33;;;13.80;73.00;;;;;;4809509;29;20083;-92
2023/05/22 04:02:43;;;;;;;9.13;3.07;;;13.90;72.30;;;;;;4810043;29;20096;-93
2023/05/22 04:05:11;;;;;;;6.78;3.22;;;13.90;72.60;;;;;;4806765;29;20058;-92
2023/05/22 04:07:38;;;;;;;8.70;3.25;;;13.90;72.50;;;;;;4824803;29;20042;-92
2023/05/22 04:10:06;;;;;;;6.25;3.25;;;13.90;72.00;;;;;;4824702;29;20093;-93
2023/05/22 04:12:33;;;;;;;6.65;3.00;;;14.00;70.80;;;;;;4824675;29;20054;-93
2023/05/22 04:15:00;;;;;;;6.70;3.00;;;14.00;70.80;;;;;;4824831;29;20094;-92
2023/05/22 04:17:34;;;;;;;8.55;3.40;;;14.10;71.30;;;;;;4824392;29;20047;-93
2023/05/22 04:20:04;;;;;;;8.60;2.88;;;14.20;71.70;;;;;;4824634;29;20050;-92
2023/05/22 04:22:32;;;;;;;10.57;2.78;;;14.20;70.30;;;;;;4824071;29;20054;-93
2023/05/22 04:24:59;;;;;;;18.92;3.78;;;14.30;69.20;;;;;;4824550;29;20058;-92
2023/05/22 04:27:28;;;;;;;18.73;3.57;;;14.50;68.90;;;;;;4824234;29;20141;-93
2023/05/22 04:29:55;;;;;;;16.80;3.55;;;14.60;68.70;;;;;;4824325;29;20046;-92
2023/05/22 04:32:25;;;;;;;9.52;2.70;;;14.80;69.60;;;;;;4824146;29;20066;-92
2023/05/22 04:34:53;;;;;;;10.32;3.35;;;14.90;67.70;;;;;;4824594;29;20053;-92
2023/05/22 04:37:20;;;;;;;10.48;3.30;;;15.00;68.30;;;;;;4824351;29;20046;-92
2023/05/22 04:39:51;;;;;;;6.53;3.13;;;15.20;67.60;;;;;;4824629;29;20046;-93
2023/05/22 04:42:19;;;;;;;7.00;3.28;;;15.30;67.80;;;;;;4824466;29;20103;-93
2023/05/22 04:44:47;;;;;;;6.25;2.90;;;15.50;65.60;;;;;;4824212;29;20060;-92
2023/05/22 04:47:14;;;;;;;7.85;3.15;;;15.60;66.90;;;;;;4824244;29;20046;-91
2023/05/22 04:49:42;;;;;;;7.13;3.17;;;15.70;66.70;;;;;;4822331;29;20502;-91
2023/05/22 04:52:10;;;;;;;6.30;2.90;;;15.90;66.40;;;;;;4818779;29;20050;-91
2023/05/22 04:54:37;;;;;;;8.68;3.35;;;16.00;66.30;;;;;;4818732;29;20112;-92
2023/05/22 04:57:05;;;;;;;26.08;4.13;;;16.10;66.40;;;;;;4808856;29;20056;-90
2023/05/22 04:59:38;;;;;;;7.28;2.90;;;16.30;67.50;;;;;;4809055;29;20078;-91
2023/05/22 05:02:05;;;;;;;7.10;2.83;;;16.40;67.40;;;;;;4804269;29;20055;-91
2023/05/22 05:04:33;;;;;;;9.10;3.70;;;16.50;67.10;;;;;;4820867;29;20058;-91
2023/05/22 05:07:01;;;;;;;10.40;3.30;;;16.60;66.20;;;;;;4817571;29;20519;-91
2023/05/22 05:09:28;;;;;;;8.23;3.53;;;16.80;67.10;;;;;;4819674;29;20051;-91
2023/05/22 05:11:55;;;;;;;8.18;3.60;;;16.80;66.50;;;;;;4822014;29;20050;-91
2023/05/22 05:14:23;;;;;;;8.73;4.50;;;16.90;67.50;;;;;;4809640;29;20042;-91
2023/05/22 05:16:53;;;;;;;7.37;3.23;;;17.00;67.40;;;;;;4807848;29;20055;-91
2023/05/22 05:19:20;;;;;;;8.52;3.65;;;17.10;65.70;;;;;;4812011;29;20096;-90
2023/05/22 05:21:48;;;;;;;8.68;3.92;;;17.10;67.10;;;;;;4800892;29;20050;-88
2023/05/22 05:24:16;;;;;;;7.18;3.60;;;17.20;67.40;;;;;;4804411;29;20050;-89
2023/05/22 05:44:16;;;;;;;10.55;4.15;;;17.60;67.50;;;;;;4870939;24;20175;-92
2023/05/22 05:46:45;;;;;;;8.48;3.95;;;17.70;67.40;;;;;;4835028;29;20073;-92
2023/05/22 05:49:15;;;;;;;8.30;4.07;;;17.50;67.40;;;;;;4831170;29;20056;-92
2023/05/22 05:51:42;;;;;;;8.45;4.00;;;17.50;67.00;;;;;;4838724;29;20046;-92
2023/05/22 05:54:10;;;;;;;11.82;4.18;;;17.60;67.00;;;;;;4844610;29;20048;-91
2023/05/22 05:56:38;;;;;;;7.60;3.78;;;17.60;67.20;;;;;;4841556;29;20105;-92
2023/05/22 05:59:06;;;;;;;7.57;4.03;;;17.80;66.80;;;;;;4824698;29;20050;-92
2023/05/22 06:01:37;;;;;;;9.50;3.67;;;17.90;65.40;;;;;;4833340;29;20105;-93
2023/05/22 06:04:10;;;;;;;8.15;3.40;;;17.90;65.00;;;;;;4847655;29;20078;-94
2023/05/22 06:06:38;;;;;;;8.05;3.15;;;17.90;66.20;;;;;;4836766;29;20046;-92
2023/05/22 06:09:08;;;;;;;10.38;3.60;;;17.90;67.70;;;;;;4836476;29;20057;-93
2023/05/22 06:11:55;;;;;;;44.13;4.50;;;18.00;67.60;;;;;;4854090;29;20050;-93
2023/05/22 06:14:23;;;;;;;10.33;3.53;;;18.10;67.30;;;;;;4839879;29;20416;-93
2023/05/22 06:16:50;;;;;;;8.20;3.28;;;18.20;66.80;;;;;;4831224;29;20492;-93
2023/05/22 06:19:17;;;;;;;7.65;2.92;;;18.20;66.10;;;;;;4837712;29;20537;-93
2023/05/22 06:21:45;;;;;;;8.75;3.33;;;18.10;66.40;;;;;;4842336;29;20046;-93
2023/05/22 06:24:12;;;;;;;8.73;3.63;;;18.10;64.80;;;;;;4820815;29;20048;-92
2023/05/22 06:26:40;;;;;;;11.57;3.30;;;18.20;63.50;;;;;;4831145;29;20428;-93
2023/05/22 06:29:07;;;;;;;9.25;3.40;;;18.10;64.60;;;;;;4838850;29;20069;-93
2023/05/22 06:31:37;;;;;;;11.13;4.00;;;18.20;64.80;;;;;;4830895;29;20046;-94
2023/05/22 06:34:06;;;;;;;8.70;3.67;;;18.30;65.20;;;;;;4830061;29;20042;-94
2023/05/22 06:36:33;;;;;;;10.20;3.50;;;18.50;64.70;;;;;;4821132;29;20038;-93
2023/05/22 06:39:01;;;;;;;9.77;3.40;;;18.60;64.20;;;;;;4840624;29;20106;-93
2023/05/22 06:41:52;;;;;;;10.40;3.72;;;18.50;61.60;;;;;;4814882;29;20085;-93
2023/05/22 06:44:20;;;;;;;11.88;3.55;;;18.40;63.40;;;;;;4836439;29;20050;-93
2023/05/22 06:46:53;;;;;;;12.02;3.70;;;18.30;63.60;;;;;;4838315;29;20050;-94
2023/05/22 06:49:23;;;;;;;11.13;3.72;;;18.20;65.10;;;;;;4821751;29;20046;-94
2023/05/22 06:51:52;;;;;;;10.13;4.70;;;18.20;65.90;;;;;;4820289;29;20060;-94
2023/05/22 06:54:20;;;;;;;12.50;4.60;;;18.40;66.20;;;;;;4821037;29;20046;-93
2023/05/22 06:56:51;;;;;;;10.00;3.95;;;18.60;64.70;;;;;;4844135;29;20489;-94
2023/05/22 06:59:19;;;;;;;10.85;4.53;;;18.60;65.00;;;;;;4832814;29;20130;-94
2023/05/22 07:02:05;;;;;;;11.30;3.88;;;18.70;64.40;;;;;;4841596;29;20056;-94
2023/05/22 07:05:00;;;;;;;9.37;3.77;;;18.80;64.20;;;;;;4832178;29;20054;-93
2023/05/22 07:07:32;;;;;;;8.77;3.42;;;19.00;61.30;;;;;;4816893;29;20501;-94
2023/05/22 07:10:00;;;;;;;9.18;3.92;;;19.10;61.70;;;;;;4832551;29;20050;-93
2023/05/22 07:12:30;;;;;;;10.20;3.30;;;19.10;60.70;;;;;;4832060;29;20106;-94
2023/05/22 07:14:58;;;;;;;11.15;3.67;;;19.10;61.10;;;;;;4828029;29;20062;-94
2023/05/22 07:44:15;;;;;;;8.90;3.65;;;20.40;56.20;;;;;;4799469;29;20444;-96
2023/05/22 07:46:42;;;;;;;12.15;3.45;;;20.60;55.00;;;;;;4824360;29;20129;-95
2023/05/22 07:49:42;;;;;;;;;;;;;;;;;;;;;
2023/05/22 07:52:16;;;;;;;11.20;3.53;;;20.60;56.00;;;;;;4860528;29;20053;-96
2023/05/22 07:54:48;;;;;;;12.17;3.30;;;20.50;55.70;;;;;;4824154;29;20073;-96
2023/05/22 07:57:35;;;;;;;15.20;4.40;;;20.50;57.20;;;;;;4853234;29;20145;-96
2023/05/22 08:00:28;;;;;;;8.65;3.65;;;20.60;56.10;;;;;;4839330;29;20053;-96
2023/05/22 08:02:56;;;;;;;8.07;3.08;;;20.80;57.10;;;;;;4840104;29;20054;-96
2023/05/22 08:05:45;;;;;;;11.73;3.35;;;21.00;56.50;;;;;;4842071;29;20079;-96
2023/05/22 08:13:05;;;;;;;14.55;3.80;;;21.10;56.40;;;;;;4822419;29;20069;-96
2023/05/22 08:20:18;;;;;;;8.32;3.45;;;20.90;54.90;;;;;;4767803;30;20071;-96
2023/05/22 08:42:24;;;;;;;10.80;3.20;;;21.00;56.10;;;;;;3283776;24;20191;-93
2023/05/22 08:44:54;;;;;;;7.32;2.67;;;21.00;54.50;;;;;;4827103;29;20132;-93
2023/05/22 08:47:24;;;;;;;8.98;3.25;;;20.90;54.80;;;;;;4828511;29;20382;-93
2023/05/22 08:49:53;;;;;;;8.57;3.13;;;21.00;57.10;;;;;;4814185;29;20484;-93
2023/05/22 08:52:32;;;;;;;8.52;3.03;;;21.10;56.40;;;;;;4829226;29;20060;-93
2023/05/22 08:55:05;;;;;;;12.30;3.07;;;21.20;58.30;;;;;;4828725;29;20394;-95
2023/05/22 08:57:44;;;;;;;8.20;2.78;;;21.20;54.00;;;;;;4839082;29;20049;-94
2023/05/22 09:03:51;;;;;;;7.88;2.72;;;21.20;57.10;;;;;;5916513;23;20053;31
2023/05/22 10:28:10;;;;;;;8.00;2.50;;;23.40;44.80;;;;;;5807728;24;20033;31
2023/05/22 10:41:06;;;;;;;7.90;2.00;;;23.30;45.80;;;;;;5696350;24;20030;-92
2023/05/22 10:43:43;;;;;;;9.25;2.40;;;23.60;46.10;;;;;;4747415;30;20113;-93
2023/05/22 10:46:11;;;;;;;7.47;2.42;;;23.60;45.20;;;;;;4756972;30;20051;-92
2023/05/22 10:48:45;;;;;;;6.65;2.35;;;23.70;47.70;;;;;;4772976;30;20407;-92
2023/05/22 10:51:14;;;;;;;8.67;2.53;;;23.90;45.20;;;;;;4757920;30;20487;-93
2023/05/22 10:53:44;;;;;;;6.60;2.30;;;23.90;46.10;;;;;;4756987;30;20051;-93
2023/05/22 10:56:13;;;;;;;7.03;2.40;;;23.90;46.40;;;;;;4772168;30;20059;-92
2023/05/22 10:59:04;;;;;;;7.10;2.30;;;24.10;46.30;;;;;;4771977;30;20116;-95
2023/05/22 11:01:36;;;;;;;8.13;2.42;;;24.10;44.90;;;;;;4757590;30;20539;-94
2023/05/22 11:04:23;;;;;;;7.93;2.40;;;24.00;43.40;;;;;;4757378;30;20048;-93
2023/05/22 11:07:06;;;;;;;8.73;2.60;;;24.00;43.70;;;;;;4771879;30;20055;-95
2023/05/22 11:09:42;;;;;;;7.13;2.63;;;23.90;44.40;;;;;;4742173;30;20048;-94
2023/05/22 11:12:15;;;;;;;6.50;2.20;;;23.90;44.10;;;;;;4772207;30;20047;-95
2023/05/22 11:14:50;;;;;;;7.47;2.30;;;23.90;43.40;;;;;;4771833;30;20047;-95
2023/05/22 11:17:21;;;;;;;8.87;2.23;;;23.90;47.00;;;;;;4756847;30;20056;-96
2023/05/22 11:20:12;;;;;;;10.95;2.63;;;24.10;46.10;;;;;;4756908;30;20567;-95
2023/05/22 11:22:41;;;;;;;6.97;2.63;;;24.00;43.10;;;;;;4750137;30;20414;-96
2023/05/22 11:25:10;;;;;;;9.50;2.83;;;24.00;44.20;;;;;;4771355;30;20083;-95
2023/05/22 11:27:40;;;;;;;7.28;2.65;;;24.10;46.80;;;;;;4771215;30;20098;-94
2023/05/22 11:30:11;;;;;;;5.97;2.10;;;24.20;43.00;;;;;;4756460;30;20137;-94
2023/05/22 11:32:43;;;;;;;10.05;2.55;;;24.10;44.30;;;;;;4756490;30;20051;-94
2023/05/22 11:35:22;;;;;;;7.82;2.85;;;24.00;44.40;;;;;;4771110;30;20056;-94
2023/05/22 11:37:51;;;;;;;7.30;2.58;;;24.10;46.00;;;;;;4771152;30;20511;-94
2023/05/22 11:40:24;;;;;;;5.97;2.28;;;24.10;43.80;;;;;;4756266;30;20472;-94
2023/05/22 11:42:52;;;;;;;8.90;2.43;;;24.00;43.60;;;;;;4746271;30;20510;-94
2023/05/22 11:45:20;;;;;;;8.23;2.35;;;24.00;43.80;;;;;;4756033;30;20058;-95
2023/05/22 11:47:48;;;;;;;7.88;2.40;;;24.20;43.90;;;;;;4756520;30;20052;-96
2023/05/22 11:50:16;;;;;;;6.53;2.47;;;24.20;42.30;;;;;;4770470;30;20448;-96
2023/05/22 11:53:03;;;;;;;8.85;2.80;;;24.20;43.00;;;;;;4741281;30;20392;-95
2023/05/22 11:55:32;;;;;;;8.87;2.43;;;24.10;43.60;;;;;;4754925;30;20075;-96
2023/05/22 11:58:01;;;;;;;8.95;2.70;;;24.20;44.60;;;;;;4753964;30;20075;-96
2023/05/22 12:00:30;;;;;;;8.43;2.30;;;24.20;43.80;;;;;;4738754;30;20056;-95
2023/05/22 12:02:57;;;;;;;7.57;2.53;;;24.10;42.90;;;;;;4743939;30;20090;-95
2023/05/22 12:05:26;;;;;;;11.85;2.70;;;23.90;43.40;;;;;;4759715;30;20059;-96
2023/05/22 12:07:57;;;;;;;7.57;2.20;;;24.10;45.70;;;;;;4753713;30;20059;-95
2023/05/22 12:10:25;;;;;;;19.38;3.20;;;24.30;43.70;;;;;;4762436;30;20052;-96
2023/05/22 12:12:53;;;;;;;7.43;2.45;;;24.40;44.00;;;;;;4747526;30;20052;-96
2023/05/22 12:15:23;;;;;;;10.38;2.78;;;24.50;45.40;;;;;;4742489;30;20151;-95
2023/05/22 12:17:56;;;;;;;5.85;2.35;;;24.60;43.80;;;;;;4739423;30;20056;-95
2023/05/22 12:20:32;;;;;;;8.30;2.50;;;24.60;42.50;;;;;;4739941;30;20121;-96
2023/05/22 12:22:59;;;;;;;7.22;2.58;;;24.70;45.90;;;;;;4740143;30;20101;-94
2023/05/22 12:25:34;;;;;;;8.65;2.47;;;24.80;42.90;;;;;;4753191;30;20056;-95
2023/05/22 12:28:02;;;;;;;6.70;2.70;;;24.80;43.10;;;;;;4752850;30;20411;-94
2023/05/22 12:30:39;;;;;;;9.00;2.33;;;24.70;43.00;;;;;;4752795;30;20048;-94
2023/05/22 12:33:12;;;;;;;8.13;2.43;;;24.60;42.40;;;;;;4738005;30;20109;-93
2023/05/22 12:35:40;;;;;;;8.77;2.22;;;24.40;42.10;;;;;;4753449;30;20056;-94
2023/05/22 12:38:08;;;;;;;87.60;6.60;;;24.40;41.40;;;;;;4724443;30;20082;-94
2023/05/22 12:40:38;;;;;;;18.10;2.88;;;24.30;44.00;;;;;;4739130;30;20466;-93
2023/05/22 12:43:06;;;;;;;7.28;2.60;;;24.50;44.70;;;;;;4753025;30;20141;-94
2023/05/22 12:45:33;;;;;;;6.90;2.50;;;24.60;43.90;;;;;;4738945;30;20503;-94
2023/05/22 12:48:06;;;;;;;5.95;2.25;;;24.60;42.40;;;;;;4753804;30;20055;-94
2023/05/22 12:50:34;;;;;;;6.82;2.60;;;24.60;41.20;;;;;;4752817;30;20499;-93
2023/05/22 12:53:04;;;;;;;7.57;2.38;;;24.40;43.10;;;;;;4752827;30;20052;-93
2023/05/22 12:55:35;;;;;;;7.10;2.53;;;24.50;45.10;;;;;;4739286;30;20099;-94
2023/05/22 12:58:04;;;;;;;9.33;2.37;;;24.60;44.20;;;;;;4740813;30;20056;-95
2023/05/22 13:00:32;;;;;;;8.98;2.20;;;24.90;45.10;;;;;;4754303;30;20071;-94
2023/05/22 13:03:15;;;;;;;8.55;2.70;;;24.80;43.60;;;;;;4741389;30;20117;-95
2023/05/22 13:10:09;;;;;;;7.00;2.40;;;24.70;44.70;;;;;;4755594;30;20055;-95
2023/05/22 13:12:37;;;;;;;8.30;2.53;;;24.80;42.50;;;;;;4737835;30;20518;-93
2023/05/22 13:15:04;;;;;;;9.02;2.72;;;24.80;43.20;;;;;;4752075;30;20083;-94
2023/05/22 13:17:32;;;;;;;11.60;2.67;;;24.90;44.00;;;;;;4738052;30;20135;-94
2023/05/22 13:19:59;;;;;;;7.28;2.55;;;24.90;44.20;;;;;;4767231;30;20056;-93
2023/05/22 13:22:26;;;;;;;9.27;2.47;;;24.70;42.30;;;;;;4752333;30;20087;-93
2023/05/22 13:24:53;;;;;;;12.60;2.90;;;24.60;42.40;;;;;;4738060;30;20534;-94
2023/05/22 13:27:20;;;;;;;6.32;2.40;;;24.70;44.90;;;;;;4752315;30;20052;-93
2023/05/22 13:29:55;;;;;;;11.73;2.83;;;24.80;42.70;;;;;;4752330;30;20058;-94
2023/05/22 13:32:23;;;;;;;7.93;2.83;;;24.80;44.00;;;;;;4737699;30;20076;-94
2023/05/22 13:34:50;;;;;;;7.78;2.72;;;24.70;42.70;;;;;;4752165;30;20526;-93
2023/05/22 13:41:41;;;;;;;8.68;2.42;;;24.80;43.00;;;;;;4754753;30;20067;-95
2023/05/22 13:48:45;;;;;;;8.18;2.63;;;24.70;44.30;;;;;;4770942;30;20050;-94
2023/05/22 13:51:12;;;;;;;9.80;2.47;;;24.60;42.10;;;;;;4755015;30;20151;-96
2023/05/22 13:53:40;;;;;;;6.90;2.60;;;24.40;43.50;;;;;;4755344;30;20499;-95
2023/05/22 13:56:07;;;;;;;8.38;2.60;;;24.50;44.80;;;;;;4758165;30;20055;-96
2023/05/22 13:58:34;;;;;;;6.88;2.90;;;24.50;45.00;;;;;;4758257;30;20464;-95
2023/05/22 14:01:01;;;;;;;7.00;2.65;;;24.20;43.60;;;;;;4758267;30;20055;-94
2023/05/22 14:03:32;;;;;;;6.68;2.90;;;24.10;44.40;;;;;;4759598;30;20109;-94
2023/05/22 14:06:00;;;;;;;7.53;2.70;;;24.10;42.80;;;;;;4760908;30;20146;-95
2023/05/22 14:08:27;;;;;;;8.60;2.95;;;24.20;45.10;;;;;;4759172;30;20055;-95
2023/05/22 14:11:00;;;;;;;6.95;2.97;;;24.30;43.90;;;;;;4782057;30;20056;-96
2023/05/22 14:13:48;;;;;;;7.03;2.95;;;24.40;47.30;;;;;;4780519;24;20075;-93
2023/05/22 14:16:15;;;;;;;9.77;2.92;;;24.50;43.30;;;;;;4739255;30;20064;-94
2023/05/22 14:18:44;;;;;;;9.07;2.57;;;24.50;44.90;;;;;;4741229;30;20143;-95
2023/05/22 14:21:15;;;;;;;7.70;2.60;;;24.40;42.80;;;;;;4742296;30;20053;-95
2023/05/22 14:23:42;;;;;;;7.72;3.03;;;24.30;43.50;;;;;;4743905;30;20052;-96
2023/05/22 14:26:09;;;;;;;8.45;3.50;;;24.40;43.60;;;;;;4723013;30;20060;-96
2023/05/22 14:28:39;;;;;;;7.88;2.95;;;24.30;42.70;;;;;;4723135;30;20052;-96
2023/05/22 14:31:06;;;;;;;9.13;3.00;;;24.30;45.00;;;;;;4737906;30;20048;-95
2023/05/22 14:33:34;;;;;;;20.15;3.33;;;24.30;43.60;;;;;;4738921;30;20053;-94
2023/05/22 14:40:32;;;;;;;8.70;2.70;;;24.30;42.30;;;;;;4752980;30;20070;-96
2023/05/22 14:43:07;;;;;;;7.88;2.65;;;24.10;43.30;;;;;;4722718;30;20068;-96
2023/05/22 14:45:46;;;;;;;9.07;2.40;;;24.10;43.30;;;;;;4737851;30;20064;-96
2023/05/22 14:48:14;;;;;;;7.70;2.53;;;24.20;43.00;;;;;;4719645;30;20053;-96
2023/05/22 14:50:42;;;;;;;10.35;2.67;;;24.30;43.20;;;;;;4724146;30;20053;-96
2023/05/22 14:53:11;;;;;;;6.90;2.95;;;24.30;41.90;;;;;;4737373;30;20076;-96
2023/05/22 14:55:38;;;;;;;9.27;3.00;;;24.30;42.40;;;;;;4737497;30;20049;-96
2023/05/22 14:58:06;;;;;;;41.13;5.10;;;24.40;40.70;;;;;;4737233;30;20049;-95
2023/05/22 15:00:36;;;;;;;7.88;2.92;;;24.40;43.30;;;;;;4737447;30;20452;-96
2023/05/22 15:03:04;;;;;;;8.63;2.33;;;24.40;41.70;;;;;;4737035;30;20053;-96
2023/05/22 15:05:31;;;;;;;10.38;2.67;;;24.30;41.50;;;;;;4736833;30;20419;-96
2023/05/22 15:07:59;;;;;;;8.77;2.50;;;24.40;43.50;;;;;;4754121;30;20045;-96
2023/05/22 15:15:15;;;;;;;7.88;2.40;;;24.30;41.00;;;;;;4684671;30;20057;-96
2023/05/22 15:17:42;;;;;;;10.20;2.40;;;24.10;41.20;;;;;;4685122;30;20057;-96
2023/05/22 15:28:06;;;;;;;10.03;2.33;;;23.80;41.60;;;;;;4650642;30;20049;-96
2023/05/22 15:30:35;;;;;;;6.95;2.10;;;23.80;41.60;;;;;;4671895;30;20454;-96
2023/05/22 15:33:02;;;;;;;8.77;2.53;;;23.80;41.50;;;;;;4716922;30;20049;-96
2023/05/22 15:35:30;;;;;;;9.10;2.60;;;23.70;41.00;;;;;;4737734;30;20072;-96
2023/05/22 15:38:03;;;;;;;8.15;2.55;;;23.60;41.10;;;;;;4737759;30;20144;-96
2023/05/22 15:40:34;;;;;;;7.43;2.50;;;23.60;41.20;;;;;;4738011;30;20052;-96
2023/05/22 15:43:02;;;;;;;7.72;2.60;;;23.60;41.40;;;;;;4737743;30;20060;-96
2023/05/22 15:45:30;;;;;;;6.95;2.28;;;23.60;41.40;;;;;;4751813;30;20057;-96
2023/05/22 15:47:57;;;;;;;11.43;2.35;;;23.60;41.60;;;;;;4737129;30;20057;-96
2023/05/22 15:50:25;;;;;;;8.77;2.50;;;23.70;42.00;;;;;;4737577;30;20060;-96
2023/05/22 15:52:52;;;;;;;12.03;3.00;;;23.70;43.10;;;;;;4737957;30;20413;-96
2023/05/22 15:55:19;;;;;;;7.07;2.10;;;23.70;41.90;;;;;;4738691;30;20053;-96
2023/05/22 15:57:46;;;;;;;8.77;2.88;;;23.60;40.90;;;;;;4738149;30;20075;-96
2023/05/22 16:04:50;;;;;;;7.18;2.53;;;23.30;42.00;;;;;;4688788;30;20548;-96
2023/05/22 16:07:18;;;;;;;10.87;2.57;;;23.20;41.50;;;;;;4687592;30;20063;-96
2023/05/22 16:09:46;;;;;;;8.27;2.67;;;23.00;42.20;;;;;;4739965;30;20079;-96
2023/05/22 16:12:13;;;;;;;7.25;2.80;;;22.90;43.40;;;;;;4739538;30;20500;-96
2023/05/22 16:14:41;;;;;;;7.20;2.60;;;22.80;42.90;;;;;;4725302;30;20079;-96
2023/05/22 16:17:11;;;;;;;8.93;2.63;;;22.80;43.30;;;;;;4739847;30;20058;-96
2023/05/22 16:19:40;;;;;;;8.23;2.33;;;22.60;43.00;;;;;;4739388;30;20072;-96
2023/05/22 16:22:08;;;;;;;10.15;2.58;;;22.70;44.70;;;;;;4738722;30;20052;-96
2023/05/22 16:24:35;;;;;;;9.18;2.40;;;22.60;43.50;;;;;;4739028;30;20477;-96
2023/05/22 16:27:03;;;;;;;8.40;2.92;;;22.60;44.40;;;;;;4739162;30;20128;-96
2023/05/22 16:29:31;;;;;;;7.00;2.55;;;22.60;43.40;;;;;;4740145;30;20049;-96